Terminal Aerodrome Forecast
Issued by NWS

Home | Current Version | Previous Version | Text Only | Print | Product List | Glossary On
Versions: 1 2 3 4 5 6 7 8 9 10 11 12 13 14 15 16 17 18 19 20 21 22 23 24 25 26 27 28
000
FTUS43 KPAH 110520
TAFOWB
TAF
KOWB 110520Z 1106/1206 VRB03KT P6SM SCT250
     FM111400 20007KT P6SM SCT100
     FM111800 21015KT P6SM BKN250
     FM120100 27013KT P6SM SCT025
     FM120500 30013KT P6SM BKN025=

USA.gov is the U.S. government's official web portal to all federal, state and local government web resources and services.